ICE5261 BIRK-BIKF
Flight info
| Callsign | ICE5261 |
|---|---|
| Flight time | 0h 9m |
| Altitude | 11000 |
| Route | ELVUM |
| Aircraft | DH8D/M-SDE2E3FGRY/H |
Departure
| Time | 2026-04-21 22:32 |
|---|---|
| Airport | Reykjavík Domestic Airport (BIRK) |
Arrival
| Time | 2026-04-21 22:42 |
|---|---|
| Airport | Keflavik International Airport (BIKF) |
| Time | Latitude | Longitude | Altitude | Speed | Heading |
|---|---|---|---|---|---|
| 2026-04-21 22:12 | 64.13176 | -21.94377 | 42 ft | 0 kts | 83° |
| 2026-04-21 22:28 | 64.13177 | -21.94349 | 42 ft | 4 kts | 100° |
| 2026-04-21 22:28 | 64.13153 | -21.94286 | 42 ft | 5 kts | 134° |
| 2026-04-21 22:28 | 64.13141 | -21.94194 | 43 ft | 6 kts | 88° |
| 2026-04-21 22:29 | 64.13143 | -21.94090 | 44 ft | 6 kts | 87° |
| 2026-04-21 22:29 | 64.13149 | -21.93964 | 45 ft | 11 kts | 82° |
| 2026-04-21 22:29 | 64.13186 | -21.93816 | 45 ft | 11 kts | 15° |
| 2026-04-21 22:29 | 64.13269 | -21.93819 | 44 ft | 12 kts | 357° |
| 2026-04-21 22:30 | 64.13359 | -21.93840 | 41 ft | 13 kts | 354° |
| 2026-04-21 22:30 | 64.13458 | -21.93862 | 37 ft | 14 kts | 359° |
| 2026-04-21 22:30 | 64.13535 | -21.93875 | 35 ft | 11 kts | 354° |
| 2026-04-21 22:30 | 64.13593 | -21.93904 | 33 ft | 8 kts | 333° |
| 2026-04-21 22:31 | 64.13631 | -21.93923 | 32 ft | 4 kts | 21° |
| 2026-04-21 22:31 | 64.13627 | -21.93854 | 32 ft | 4 kts | 172° |
| 2026-04-21 22:31 | 64.13591 | -21.93879 | 33 ft | 5 kts | 188° |
| 2026-04-21 22:31 | 64.13566 | -21.93878 | 34 ft | 0 kts | 175° |
| 2026-04-21 22:32 | 64.13196 | -21.93802 | 46 ft | 111 kts | 173° |
| 2026-04-21 22:32 | 64.12234 | -21.93739 | 494 ft | 151 kts | 183° |
| 2026-04-21 22:32 | 64.11146 | -21.93967 | 1416 ft | 165 kts | 192° |
| 2026-04-21 22:33 | 64.10133 | -21.95096 | 2298 ft | 173 kts | 238° |
| 2026-04-21 22:33 | 64.09847 | -21.98082 | 2546 ft | 213 kts | 276° |
| 2026-04-21 22:33 | 64.10143 | -22.01561 | 2434 ft | 219 kts | 287° |
| 2026-04-21 22:33 | 64.10554 | -22.04971 | 2438 ft | 213 kts | 289° |
| 2026-04-21 22:34 | 64.10986 | -22.08200 | 2440 ft | 209 kts | 290° |
| 2026-04-21 22:34 | 64.11438 | -22.11422 | 2441 ft | 206 kts | 290° |
| 2026-04-21 22:34 | 64.11896 | -22.14534 | 2438 ft | 204 kts | 291° |
| 2026-04-21 22:34 | 64.12367 | -22.17661 | 2437 ft | 203 kts | 292° |
| 2026-04-21 22:35 | 64.12843 | -22.20758 | 2441 ft | 201 kts | 292° |
| 2026-04-21 22:35 | 64.13321 | -22.23824 | 2445 ft | 201 kts | 292° |
| 2026-04-21 22:35 | 64.13807 | -22.26906 | 2447 ft | 200 kts | 292° |
| 2026-04-21 22:35 | 64.14290 | -22.29949 | 2448 ft | 200 kts | 292° |
| 2026-04-21 22:36 | 64.15262 | -22.36034 | 2448 ft | 200 kts | 292° |
| 2026-04-21 22:36 | 64.15744 | -22.39047 | 2448 ft | 200 kts | 292° |
| 2026-04-21 22:36 | 64.16167 | -22.42071 | 2438 ft | 201 kts | 281° |
| 2026-04-21 22:37 | 64.15956 | -22.45290 | 2453 ft | 204 kts | 255° |
| 2026-04-21 22:37 | 64.15458 | -22.48438 | 2387 ft | 208 kts | 253° |
| 2026-04-21 22:37 | 64.14955 | -22.51531 | 2220 ft | 201 kts | 252° |
| 2026-04-21 22:37 | 64.14461 | -22.54508 | 2041 ft | 190 kts | 253° |
| 2026-04-21 22:38 | 64.14000 | -22.57307 | 1867 ft | 181 kts | 253° |
| 2026-04-21 22:38 | 64.13340 | -22.59706 | 1671 ft | 179 kts | 220° |
| 2026-04-21 22:38 | 64.12054 | -22.60519 | 1542 ft | 202 kts | 187° |
| 2026-04-21 22:38 | 64.10559 | -22.60604 | 1514 ft | 212 kts | 184° |
| 2026-04-21 22:39 | 64.09028 | -22.60614 | 1531 ft | 215 kts | 183° |
| 2026-04-21 22:39 | 64.07482 | -22.60630 | 1598 ft | 216 kts | 183° |
| 2026-04-21 22:39 | 64.06058 | -22.60607 | 1512 ft | 179 kts | 182° |
| 2026-04-21 22:39 | 64.04923 | -22.60570 | 1491 ft | 145 kts | 183° |
| 2026-04-21 22:40 | 64.03966 | -22.60550 | 1406 ft | 130 kts | 183° |
| 2026-04-21 22:40 | 64.03070 | -22.60462 | 988 ft | 129 kts | 182° |
| 2026-04-21 22:40 | 64.02219 | -22.60434 | 683 ft | 116 kts | 184° |
| 2026-04-21 22:40 | 64.01344 | -22.60569 | 642 ft | 125 kts | 187° |
| 2026-04-21 22:41 | 64.00454 | -22.60560 | 531 ft | 128 kts | 186° |
| 2026-04-21 22:41 | 63.99626 | -22.60566 | 432 ft | 116 kts | 183° |
| 2026-04-21 22:41 | 63.98827 | -22.60546 | 172 ft | 105 kts | 185° |
| 2026-04-21 22:41 | 63.98249 | -22.60587 | 162 ft | 59 kts | 182° |
| 2026-04-21 22:42 | 63.98111 | -22.60583 | 164 ft | 3 kts | 211° |
| 2026-04-21 22:42 | 63.98128 | -22.60647 | 162 ft | 11 kts | 338° |
| 2026-04-21 22:42 | 63.98208 | -22.60737 | 160 ft | 12 kts | 331° |
| 2026-04-21 22:42 | 63.98293 | -22.60849 | 156 ft | 9 kts | 329° |
| 2026-04-21 22:43 | 63.98353 | -22.60932 | 155 ft | 10 kts | 335° |
| 2026-04-21 22:43 | 63.98422 | -22.60943 | 153 ft | 7 kts | 0° |
| 2026-04-21 22:43 | 63.98444 | -22.60944 | 153 ft | 0 kts | 360° |
| 2026-04-21 22:43 | 63.98496 | -22.60945 | 153 ft | 12 kts | 0° |
| 2026-04-21 22:44 | 63.98579 | -22.60945 | 153 ft | 10 kts | 0° |
| 2026-04-21 22:44 | 63.98618 | -22.60945 | 153 ft | 4 kts | 0° |
| 2026-04-21 22:44 | 63.98665 | -22.60946 | 153 ft | 8 kts | 359° |
| 2026-04-21 22:44 | 63.98732 | -22.60951 | 153 ft | 10 kts | 358° |
| 2026-04-21 22:45 | 63.98809 | -22.60950 | 152 ft | 9 kts | 0° |
| 2026-04-21 22:45 | 63.98857 | -22.60954 | 151 ft | 8 kts | 359° |
| 2026-04-21 22:45 | 63.98923 | -22.60945 | 150 ft | 9 kts | 7° |
| 2026-04-21 22:45 | 63.98947 | -22.60940 | 150 ft | 0 kts | 2° |
| 2026-04-21 22:46 | 63.98956 | -22.60940 | 149 ft | 3 kts | 2° |
| 2026-04-21 22:46 | 63.99003 | -22.60939 | 148 ft | 9 kts | 360° |
| 2026-04-21 22:47 | 63.99070 | -22.60945 | 148 ft | 8 kts | 358° |
| 2026-04-21 22:47 | 63.99099 | -22.60948 | 148 ft | 6 kts | 358° |
| 2026-04-21 22:47 | 63.99153 | -22.60982 | 148 ft | 8 kts | 318° |
| 2026-04-21 22:47 | 63.99171 | -22.61104 | 148 ft | 8 kts | 272° |
| 2026-04-21 22:48 | 63.99173 | -22.61246 | 147 ft | 12 kts | 271° |
| 2026-04-21 22:48 | 63.99172 | -22.61466 | 145 ft | 14 kts | 269° |
| 2026-04-21 22:48 | 63.99172 | -22.61690 | 145 ft | 14 kts | 272° |
| 2026-04-21 22:48 | 63.99173 | -22.61880 | 145 ft | 10 kts | 271° |
| 2026-04-21 22:49 | 63.99173 | -22.62035 | 145 ft | 9 kts | 270° |
| 2026-04-21 22:49 | 63.99173 | -22.62173 | 145 ft | 8 kts | 269° |
| 2026-04-21 22:49 | 63.99173 | -22.62371 | 144 ft | 15 kts | 271° |
| 2026-04-21 22:49 | 63.99172 | -22.62581 | 142 ft | 10 kts | 270° |
| 2026-04-21 22:50 | 63.99171 | -22.62754 | 142 ft | 11 kts | 268° |
| 2026-04-21 22:50 | 63.99171 | -22.62874 | 142 ft | 8 kts | 271° |
| 2026-04-21 22:50 | 63.99171 | -22.63030 | 142 ft | 10 kts | 272° |
| 2026-04-21 22:50 | 63.99172 | -22.63203 | 141 ft | 7 kts | 272° |
| 2026-04-21 22:51 | 63.99173 | -22.63342 | 138 ft | 8 kts | 270° |
| 2026-04-21 22:51 | 63.99200 | -22.63449 | 138 ft | 4 kts | 332° |
| 2026-04-21 22:51 | 63.99233 | -22.63474 | 138 ft | 5 kts | 352° |
| 2026-04-21 22:51 | 63.99260 | -22.63435 | 138 ft | 4 kts | 49° |
| 2026-04-21 22:52 | 63.99270 | -22.63412 | 138 ft | 1 kts | 47° |
| 2026-04-21 22:52 | 63.99273 | -22.63404 | 139 ft | 0 kts | 47° |